createdAt,value
2022-10-23T00:01:29.637Z,88.89
2022-10-23T00:04:00.165Z,89.04
2022-10-23T00:06:29.511Z,89.05
2022-10-23T00:08:58.860Z,89.38
2022-10-23T00:11:28.954Z,89.48
2022-10-23T00:13:59.015Z,89.78
2022-10-23T00:16:27.525Z,89.72
2022-10-23T00:18:55.535Z,89.60
2022-10-23T00:21:24.272Z,89.98
2022-10-23T00:23:52.836Z,89.73
2022-10-23T00:26:22.334Z,89.47
2022-10-23T00:28:51.869Z,89.59
2022-10-23T00:31:21.272Z,89.44
2022-10-23T00:33:49.706Z,89.74
2022-10-23T00:36:19.554Z,89.64
2022-10-23T00:38:48.000Z,89.53
2022-10-23T00:41:20.056Z,89.17
2022-10-23T00:44:02.338Z,89.08
2022-10-23T00:46:30.651Z,88.97
2022-10-23T00:48:59.162Z,88.93
2022-10-23T00:51:29.661Z,88.45
2022-10-23T00:54:12.939Z,88.98
2022-10-23T00:56:48.203Z,88.68
2022-10-23T00:59:17.563Z,88.87
2022-10-23T01:01:46.360Z,88.44
2022-10-23T01:04:14.398Z,88.09
2022-10-23T01:06:47.476Z,88.72
2022-10-23T01:09:20.413Z,87.80
2022-10-23T01:11:53.742Z,87.88
2022-10-23T01:14:29.031Z,87.65
2022-10-23T01:17:01.961Z,88.07
2022-10-23T01:19:44.578Z,87.76
2022-10-23T01:22:22.812Z,88.15
2022-10-23T01:24:56.854Z,87.75
2022-10-23T01:27:28.281Z,87.63
2022-10-23T01:30:06.008Z,87.64
2022-10-23T01:32:42.911Z,87.52
2022-10-23T01:35:14.667Z,87.58
2022-10-23T01:37:45.361Z,87.53
2022-10-23T01:40:21.948Z,87.44
2022-10-23T01:42:54.562Z,86.80
2022-10-23T01:45:31.362Z,87.31
2022-10-23T01:48:01.365Z,87.40
2022-10-23T01:50:30.608Z,87.57
2022-10-23T01:53:04.164Z,87.77
2022-10-23T01:55:33.873Z,87.78
2022-10-23T01:58:08.455Z,87.88
2022-10-23T02:00:41.976Z,87.49
2022-10-23T02:03:16.710Z,87.83
2022-10-23T02:05:46.589Z,88.16
2022-10-23T02:08:14.810Z,88.07
2022-10-23T02:10:46.833Z,87.77
2022-10-23T02:13:20.606Z,88.48
2022-10-23T02:15:50.536Z,88.05
2022-10-23T02:18:29.081Z,88.08
2022-10-23T02:21:00.558Z,87.70
2022-10-23T02:23:33.081Z,88.00
2022-10-23T02:26:05.491Z,87.64
2022-10-23T02:28:39.923Z,87.79
2022-10-23T02:31:11.196Z,87.93
2022-10-23T02:33:39.607Z,87.59
2022-10-23T02:36:08.361Z,88.27
2022-10-23T02:38:38.333Z,88.20
2022-10-23T02:41:20.793Z,88.29
2022-10-23T02:43:58.801Z,87.60
2022-10-23T02:46:32.451Z,88.29
2022-10-23T02:49:08.688Z,87.67
2022-10-23T02:51:45.969Z,87.63
2022-10-23T02:54:21.881Z,88.54
2022-10-23T02:56:54.622Z,87.93
2022-10-23T02:59:27.882Z,88.31
2022-10-23T03:02:01.691Z,88.42
2022-10-23T03:04:30.783Z,87.63
2022-10-23T03:06:58.863Z,88.43
2022-10-23T03:09:27.957Z,87.83
2022-10-23T03:11:57.254Z,87.51
2022-10-23T03:14:26.745Z,87.52
2022-10-23T03:16:54.729Z,88.01
2022-10-23T03:19:22.881Z,87.97
2022-10-23T03:21:50.922Z,87.59
2022-10-23T03:24:18.954Z,87.99
2022-10-23T03:26:47.514Z,87.97
2022-10-23T03:29:15.506Z,87.39
2022-10-23T03:31:47.911Z,87.51
2022-10-23T03:34:16.866Z,87.60
2022-10-23T03:36:44.834Z,87.88
2022-10-23T03:39:12.881Z,86.96
2022-10-23T03:41:40.844Z,87.68
2022-10-23T03:44:09.132Z,87.31
2022-10-23T03:46:37.105Z,87.13
2022-10-23T03:49:06.793Z,88.04
2022-10-23T03:51:34.790Z,87.77
2022-10-23T03:54:02.853Z,87.42
2022-10-23T03:56:31.048Z,87.36
2022-10-23T03:59:00.750Z,87.09
2022-10-23T04:01:28.962Z,86.81
2022-10-23T04:03:57.035Z,87.37
2022-10-23T04:06:28.441Z,86.47
2022-10-23T04:08:58.735Z,86.97
2022-10-23T04:11:26.850Z,86.84
2022-10-23T04:13:54.862Z,86.76
2022-10-23T04:16:25.071Z,86.54
2022-10-23T04:18:53.527Z,86.80
2022-10-23T04:21:21.690Z,86.84
2022-10-23T04:23:51.005Z,86.36
2022-10-23T04:26:19.854Z,86.46
2022-10-23T04:28:47.855Z,87.25
2022-10-23T04:31:16.830Z,87.26
2022-10-23T04:33:45.021Z,87.60
2022-10-23T04:36:26.836Z,87.11
2022-10-23T04:38:56.150Z,87.10
2022-10-23T04:41:24.228Z,86.88
2022-10-23T04:43:52.310Z,87.51
2022-10-23T04:46:20.368Z,88.06
2022-10-23T04:48:49.856Z,87.38
2022-10-23T04:51:27.894Z,87.58
2022-10-23T04:54:05.627Z,87.80
2022-10-23T04:56:56.188Z,87.46
2022-10-23T04:59:24.944Z,87.66
2022-10-23T05:01:53.124Z,87.36
2022-10-23T05:04:21.220Z,88.15
2022-10-23T05:07:07.931Z,88.56
2022-10-23T05:10:00.102Z,87.90
2022-10-23T05:12:35.242Z,88.67
2022-10-23T05:15:05.525Z,88.88
2022-10-23T05:17:36.394Z,88.23
2022-10-23T05:20:08.972Z,88.65
2022-10-23T05:22:38.379Z,89.18
2022-10-23T05:25:12.919Z,88.43
2022-10-23T05:27:45.416Z,87.99
2022-10-23T05:30:15.459Z,88.24
2022-10-23T05:32:43.773Z,88.21
2022-10-23T05:35:15.259Z,88.25
2022-10-23T05:37:48.611Z,88.02
2022-10-23T05:40:24.770Z,88.89
2022-10-23T05:42:59.361Z,88.85
2022-10-23T05:45:38.186Z,88.43
2022-10-23T05:48:34.395Z,88.45
2022-10-23T05:51:23.315Z,88.38
2022-10-23T05:53:59.676Z,88.13
2022-10-23T05:56:36.661Z,88.35
2022-10-23T05:59:27.384Z,88.83
2022-10-23T06:02:21.286Z,88.38
2022-10-23T06:05:07.137Z,88.82
2022-10-23T06:07:53.466Z,88.38
2022-10-23T06:10:21.443Z,89.27
2022-10-23T06:12:53.756Z,88.72
2022-10-23T06:15:21.833Z,89.20
2022-10-23T06:18:01.737Z,89.12
2022-10-23T06:20:31.368Z,89.38
2022-10-23T06:23:09.162Z,89.76
2022-10-23T06:25:56.571Z,90.11
2022-10-23T06:28:34.247Z,89.43
2022-10-23T06:31:05.632Z,88.95
2022-10-23T06:33:33.671Z,89.51
2022-10-23T06:36:05.534Z,89.61
2022-10-23T06:38:36.832Z,89.23
2022-10-23T06:41:06.899Z,89.05
2022-10-23T06:43:39.857Z,89.36
2022-10-23T06:46:26.858Z,89.55
2022-10-23T06:49:18.183Z,90.26
2022-10-23T06:51:49.109Z,89.35
2022-10-23T06:54:21.965Z,89.81
2022-10-23T06:56:49.906Z,89.74
2022-10-23T06:59:32.590Z,89.94
2022-10-23T07:02:02.186Z,90.48
2022-10-23T07:04:30.278Z,90.64
2022-10-23T07:06:59.280Z,91.04
2022-10-23T07:09:36.608Z,91.13
2022-10-23T07:12:25.007Z,90.84
2022-10-23T07:15:09.726Z,90.69
2022-10-23T07:17:37.670Z,91.18
2022-10-23T07:20:06.393Z,90.63
2022-10-23T07:22:35.012Z,91.66
2022-10-23T07:25:10.401Z,91.69
2022-10-23T07:27:40.296Z,92.17
2022-10-23T07:30:13.606Z,91.46
2022-10-23T07:32:47.428Z,92.46
2022-10-23T07:35:37.001Z,92.33
2022-10-23T07:38:13.771Z,92.47
2022-10-23T07:40:46.007Z,92.25
2022-10-23T07:43:18.392Z,92.85
2022-10-23T07:45:49.641Z,92.86
2022-10-23T07:48:27.276Z,93.00
2022-10-23T07:51:03.059Z,93.12
2022-10-23T07:53:31.975Z,92.69
2022-10-23T07:56:15.976Z,92.87
2022-10-23T07:59:19.408Z,92.68
2022-10-23T08:01:56.249Z,93.00
2022-10-23T08:04:29.161Z,93.25
2022-10-23T08:07:03.886Z,93.24
2022-10-23T08:09:38.820Z,92.93
2022-10-23T08:12:07.162Z,92.97
2022-10-23T08:14:35.183Z,93.54
2022-10-23T08:17:05.652Z,93.62
2022-10-23T08:19:57.674Z,93.50
2022-10-23T08:22:28.870Z,93.83
2022-10-23T08:24:56.951Z,94.06
2022-10-23T08:27:26.212Z,94.44
2022-10-23T08:29:54.168Z,94.34
2022-10-23T08:32:23.865Z,94.33
2022-10-23T08:35:03.412Z,93.88
2022-10-23T08:37:33.394Z,93.80
2022-10-23T08:40:01.901Z,94.32
2022-10-23T08:43:01.276Z,93.74
2022-10-23T08:45:32.538Z,93.75
2022-10-23T08:48:16.205Z,93.62
2022-10-23T08:51:15.560Z,93.54
2022-10-23T08:53:48.074Z,92.92
2022-10-23T08:56:22.266Z,92.28
2022-10-23T08:58:54.984Z,92.22
2022-10-23T09:01:35.616Z,92.12
2022-10-23T09:04:05.859Z,91.93
2022-10-23T09:06:38.431Z,92.29
2022-10-23T09:09:21.348Z,91.55
2022-10-23T09:11:55.361Z,91.62
2022-10-23T09:14:41.928Z,91.75
2022-10-23T09:17:15.805Z,91.78
2022-10-23T09:19:48.024Z,91.31
2022-10-23T09:22:16.004Z,90.82
2022-10-23T09:24:44.661Z,90.17
2022-10-23T09:27:16.693Z,89.91
2022-10-23T09:29:50.850Z,90.31
2022-10-23T09:32:21.411Z,90.08
2022-10-23T09:34:55.727Z,89.96
2022-10-23T09:37:25.489Z,89.63
2022-10-23T09:40:04.932Z,89.43
2022-10-23T09:42:32.942Z,89.13
2022-10-23T09:45:01.837Z,88.77
2022-10-23T09:47:29.994Z,88.95
2022-10-23T09:49:59.536Z,88.86
2022-10-23T09:52:32.473Z,88.39
2022-10-23T09:55:01.908Z,88.51
2022-10-23T09:57:32.570Z,87.81
2022-10-23T10:00:02.765Z,87.09
2022-10-23T10:02:39.764Z,86.72
2022-10-23T10:05:35.657Z,84.48
2022-10-23T10:08:11.935Z,84.56
2022-10-23T10:10:42.533Z,82.88
2022-10-23T10:13:21.464Z,80.09
2022-10-23T10:15:53.236Z,80.50
2022-10-23T10:18:25.737Z,80.93
2022-10-23T10:21:04.809Z,80.52
2022-10-23T10:23:37.937Z,81.04
2022-10-23T10:26:15.772Z,80.52
2022-10-23T10:28:55.546Z,80.16
2022-10-23T10:31:27.750Z,79.74
2022-10-23T10:34:03.827Z,79.81
2022-10-23T10:36:42.837Z,80.14
2022-10-23T10:39:30.737Z,79.57
2022-10-23T10:42:26.560Z,77.77
2022-10-23T10:45:16.478Z,78.00
2022-10-23T10:47:51.866Z,76.73
2022-10-23T10:50:28.883Z,76.88
2022-10-23T10:53:21.814Z,77.83
2022-10-23T10:55:52.031Z,77.18
2022-10-23T10:58:23.495Z,77.48
2022-10-23T11:00:54.323Z,78.19
2022-10-23T11:03:30.516Z,77.25
2022-10-23T11:08:49.784Z,76.95
2022-10-23T11:11:26.117Z,77.22
2022-10-23T11:13:54.251Z,77.90
2022-10-23T11:16:24.848Z,77.51
2022-10-23T11:19:02.631Z,76.63
2022-10-23T11:21:36.613Z,77.70
2022-10-23T11:24:30.442Z,77.29
2022-10-23T11:27:12.883Z,76.26
2022-10-23T11:29:51.795Z,76.37
2022-10-23T11:35:25.469Z,75.60
2022-10-23T11:38:01.672Z,75.22
2022-10-23T11:40:31.106Z,76.11
2022-10-23T11:42:59.051Z,76.15
2022-10-23T11:45:29.390Z,75.38
2022-10-23T11:47:59.289Z,73.81
2022-10-23T11:50:32.743Z,75.45
2022-10-23T11:53:20.873Z,73.53
2022-10-23T11:56:06.699Z,74.38
2022-10-23T11:58:45.743Z,74.78
2022-10-23T12:01:25.286Z,74.76
2022-10-23T12:03:55.327Z,75.17
2022-10-23T12:06:26.575Z,73.76
2022-10-23T12:08:57.391Z,73.19
2022-10-23T12:11:42.418Z,73.12
2022-10-23T12:14:31.369Z,73.37
2022-10-23T12:16:59.492Z,73.37
2022-10-23T12:19:29.115Z,73.16
2022-10-23T12:22:00.538Z,73.05
2022-10-23T12:24:39.685Z,73.16
2022-10-23T12:27:17.516Z,73.58
2022-10-23T12:29:59.413Z,73.51
2022-10-23T12:32:34.555Z,73.19
2022-10-23T12:35:22.462Z,73.41
2022-10-23T12:38:04.137Z,73.12
2022-10-23T12:40:32.340Z,73.00
2022-10-23T12:43:02.153Z,72.56
2022-10-23T12:45:31.646Z,73.11
2022-10-23T12:48:00.673Z,73.46
2022-10-23T12:50:31.751Z,72.38
2022-10-23T12:53:02.335Z,71.77
2022-10-23T12:55:36.178Z,72.22
2022-10-23T12:58:05.528Z,71.92
2022-10-23T13:00:33.597Z,72.05
2022-10-23T13:03:03.368Z,72.34
2022-10-23T13:05:31.889Z,71.94
2022-10-23T13:08:01.364Z,72.57
2022-10-23T13:10:42.883Z,72.72
2022-10-23T13:13:13.979Z,72.50
2022-10-23T13:15:42.990Z,72.38
2022-10-23T13:18:14.115Z,72.68
2022-10-23T13:20:43.649Z,72.32
2022-10-23T13:23:17.520Z,72.50
2022-10-23T13:25:54.212Z,71.92
2022-10-23T13:28:25.991Z,71.88
2022-10-23T13:31:03.034Z,72.11
2022-10-23T13:33:36.821Z,71.71
2022-10-23T13:36:07.276Z,71.86
2022-10-23T13:38:36.788Z,71.92
2022-10-23T13:41:10.253Z,72.34
2022-10-23T13:43:39.703Z,70.96
2022-10-23T13:46:14.254Z,70.26
2022-10-23T13:48:42.234Z,70.81
2022-10-23T13:51:13.905Z,70.74
2022-10-23T13:53:41.952Z,70.10
2022-10-23T13:56:12.357Z,70.48
2022-10-23T13:58:41.997Z,70.41
2022-10-23T14:01:14.053Z,70.20
2022-10-23T14:03:42.070Z,69.55
2022-10-23T14:06:10.102Z,69.99
2022-10-23T14:08:38.080Z,70.43
2022-10-23T14:11:06.208Z,70.62
2022-10-23T14:13:34.191Z,71.42
2022-10-23T14:16:03.505Z,70.95
2022-10-23T14:18:31.555Z,70.64
2022-10-23T14:21:01.071Z,71.15
2022-10-23T14:23:29.210Z,70.90
2022-10-23T14:26:03.037Z,71.26
2022-10-23T14:28:31.048Z,71.48
2022-10-23T14:31:00.335Z,70.66
2022-10-23T14:33:29.615Z,71.51
2022-10-23T14:35:57.568Z,71.54
2022-10-23T14:38:25.774Z,71.16
2022-10-23T14:40:53.853Z,71.08
2022-10-23T14:43:22.350Z,71.08
2022-10-23T14:45:50.372Z,71.35
2022-10-23T14:48:18.493Z,70.72
2022-10-23T14:50:49.140Z,71.11
2022-10-23T14:53:17.178Z,71.68
2022-10-23T14:55:45.206Z,71.16
2022-10-23T14:58:13.194Z,70.92
2022-10-23T15:00:41.205Z,71.29
2022-10-23T15:03:09.157Z,71.16
2022-10-23T15:05:42.428Z,71.68
2022-10-23T15:08:11.710Z,71.61
2022-10-23T15:10:40.067Z,71.73
2022-10-23T15:13:08.039Z,71.58
2022-10-23T15:15:36.000Z,71.69
2022-10-23T15:18:03.992Z,71.82
2022-10-23T15:20:32.039Z,72.05
2022-10-23T15:23:00.820Z,72.29
2022-10-23T15:25:30.498Z,72.34
2022-10-23T15:27:59.540Z,72.35
2022-10-23T15:30:27.629Z,72.23
2022-10-23T15:32:55.705Z,71.82
2022-10-23T15:35:24.400Z,72.10
2022-10-23T15:37:52.389Z,72.29
2022-10-23T15:40:20.305Z,72.44
2022-10-23T15:42:50.720Z,72.55
2022-10-23T15:45:18.807Z,72.72
2022-10-23T15:47:46.814Z,73.01
2022-10-23T15:50:14.751Z,72.89
2022-10-23T15:52:43.011Z,73.07
2022-10-23T15:55:12.402Z,73.15
2022-10-23T15:57:40.435Z,73.67
2022-10-23T16:00:11.647Z,73.60
2022-10-23T16:02:39.637Z,73.66
2022-10-23T16:05:08.172Z,73.75
2022-10-23T16:07:36.191Z,73.97
2022-10-23T16:10:04.627Z,74.21
2022-10-23T16:12:32.557Z,74.23
2022-10-23T16:15:00.527Z,74.22
2022-10-23T16:17:29.808Z,74.33
2022-10-23T16:19:57.748Z,74.90
2022-10-23T16:22:25.667Z,74.88
2022-10-23T16:24:53.638Z,75.01
2022-10-23T16:27:46.964Z,74.91
2022-10-23T16:30:16.286Z,75.38
2022-10-23T16:32:45.608Z,75.64
2022-10-23T16:35:13.716Z,75.90
2022-10-23T16:37:55.562Z,76.41
2022-10-23T16:40:24.218Z,76.89
2022-10-23T16:43:10.762Z,77.02
2022-10-23T16:45:44.780Z,76.62
2022-10-23T16:48:14.377Z,76.76
2022-10-23T16:50:42.791Z,77.38
2022-10-23T16:53:10.731Z,77.39
2022-10-23T16:55:41.574Z,77.92
2022-10-23T16:58:09.553Z,77.47
2022-10-23T17:00:37.657Z,77.04
2022-10-23T17:03:06.285Z,77.04
2022-10-23T17:05:35.919Z,77.74
2022-10-23T17:08:03.919Z,78.25
2022-10-23T17:10:31.912Z,78.24
2022-10-23T17:12:59.928Z,77.39
2022-10-23T17:15:28.555Z,77.57
2022-10-23T17:17:57.974Z,78.28
2022-10-23T17:20:25.981Z,78.23
2022-10-23T17:22:55.365Z,78.33
2022-10-23T17:25:23.367Z,77.87
2022-10-23T17:27:51.286Z,78.05
2022-10-23T17:30:19.281Z,78.69
2022-10-23T17:32:47.507Z,78.64
2022-10-23T17:35:15.848Z,78.63
2022-10-23T17:37:43.818Z,79.50
2022-10-23T17:40:14.127Z,78.62
2022-10-23T17:42:42.965Z,79.08
2022-10-23T17:45:11.705Z,79.01
2022-10-23T17:47:41.109Z,78.54
2022-10-23T17:50:12.234Z,78.55
2022-10-23T17:52:40.456Z,78.61
2022-10-23T17:55:09.309Z,78.94
2022-10-23T17:57:38.660Z,79.05
2022-10-23T18:00:07.780Z,79.12
2022-10-23T18:02:40.435Z,78.79
2022-10-23T18:05:08.951Z,78.92
2022-10-23T18:07:36.940Z,79.11
2022-10-23T18:10:05.529Z,78.73
2022-10-23T18:12:33.480Z,78.99
2022-10-23T18:15:03.096Z,79.07
2022-10-23T18:17:31.047Z,79.11
2022-10-23T18:20:01.998Z,79.56
2022-10-23T18:22:33.060Z,79.83
2022-10-23T18:25:01.541Z,80.01
2022-10-23T18:27:29.527Z,80.60
2022-10-23T18:29:57.490Z,81.06
2022-10-23T18:32:27.883Z,80.88
2022-10-23T18:34:55.879Z,81.68
2022-10-23T18:37:26.823Z,81.89
2022-10-23T18:39:56.744Z,81.98
2022-10-23T18:42:24.656Z,82.77
2022-10-23T18:44:52.576Z,84.27
2022-10-23T18:47:20.589Z,84.47
2022-10-23T18:49:49.978Z,84.47
2022-10-23T18:52:17.974Z,83.84
2022-10-23T18:54:46.006Z,83.63
2022-10-23T18:57:13.931Z,84.60
2022-10-23T18:59:41.900Z,86.27
2022-10-23T19:02:11.736Z,86.01
2022-10-23T19:04:39.769Z,84.86
2022-10-23T19:07:09.110Z,85.42
2022-10-23T19:09:37.104Z,84.63
2022-10-23T19:12:05.887Z,84.50
2022-10-23T19:14:33.915Z,83.82
2022-10-23T19:17:03.700Z,84.13
2022-10-23T19:19:33.305Z,84.05
2022-10-23T19:22:01.877Z,83.36
2022-10-23T19:24:33.685Z,83.96
2022-10-23T19:27:02.428Z,83.47
2022-10-23T19:29:30.956Z,84.47
2022-10-23T19:31:58.996Z,83.94
2022-10-23T19:34:27.384Z,84.29
2022-10-23T19:36:55.654Z,84.12
2022-10-23T19:39:25.787Z,84.26
2022-10-23T19:41:55.809Z,85.25
2022-10-23T19:44:23.822Z,85.08
2022-10-23T19:46:52.070Z,84.95
2022-10-23T19:49:20.338Z,84.95
2022-10-23T19:51:51.369Z,85.13
2022-10-23T19:54:19.992Z,84.90
2022-10-23T19:56:48.374Z,84.52
2022-10-23T19:59:18.018Z,84.87
2022-10-23T20:01:47.904Z,84.64
2022-10-23T20:04:17.077Z,85.01
2022-10-23T20:06:45.079Z,85.25
2022-10-23T20:09:13.298Z,85.50
2022-10-23T20:11:41.477Z,85.05
2022-10-23T20:14:09.511Z,85.12
2022-10-23T20:16:40.187Z,84.93
2022-10-23T20:19:10.887Z,84.91
2022-10-23T20:21:41.081Z,84.67
2022-10-23T20:24:09.780Z,84.89
2022-10-23T20:26:40.513Z,84.54
2022-10-23T20:29:08.577Z,85.10
2022-10-23T20:32:03.643Z,85.25
2022-10-23T20:34:31.634Z,84.91
2022-10-23T20:37:00.640Z,84.84
2022-10-23T20:39:29.775Z,85.23
2022-10-23T20:41:58.210Z,84.85
2022-10-23T20:44:26.308Z,84.89
2022-10-23T20:46:54.339Z,84.63
2022-10-23T20:49:24.494Z,84.60
2022-10-23T20:51:55.190Z,85.18
2022-10-23T20:54:23.824Z,84.61
2022-10-23T20:56:51.832Z,85.84
2022-10-23T20:59:20.560Z,85.44
2022-10-23T21:01:50.613Z,86.04
2022-10-23T21:04:20.428Z,86.91
2022-10-23T21:07:08.868Z,86.25
2022-10-23T21:09:38.000Z,86.54
2022-10-23T21:12:07.424Z,87.08
2022-10-23T21:14:35.762Z,86.82
2022-10-23T21:17:04.318Z,86.54
2022-10-23T21:19:32.408Z,87.91
2022-10-23T21:22:01.746Z,88.61
2022-10-23T21:24:29.734Z,88.74
2022-10-23T21:26:57.740Z,88.46
2022-10-23T21:29:25.702Z,87.32
2022-10-23T21:31:55.221Z,87.66
2022-10-23T21:34:23.426Z,87.92
2022-10-23T21:37:11.782Z,87.27
2022-10-23T21:39:40.947Z,87.74
2022-10-23T21:42:09.451Z,88.01
2022-10-23T21:44:37.506Z,87.46
2022-10-23T21:47:05.950Z,87.54
2022-10-23T21:49:33.935Z,87.46
2022-10-23T21:52:01.942Z,87.51
2022-10-23T21:54:29.910Z,87.40
2022-10-23T21:56:59.204Z,87.22
2022-10-23T21:59:30.271Z,87.28
2022-10-23T22:01:59.965Z,87.31
2022-10-23T22:04:28.128Z,87.35
2022-10-23T22:06:56.100Z,86.85
2022-10-23T22:09:24.314Z,87.15
2022-10-23T22:11:53.499Z,87.27
2022-10-23T22:14:23.972Z,87.87
2022-10-23T22:16:53.097Z,87.90
2022-10-23T22:19:22.699Z,87.50
2022-10-23T22:21:51.955Z,87.46
2022-10-23T22:24:20.478Z,88.30
2022-10-23T22:26:51.082Z,89.37
2022-10-23T22:29:22.644Z,89.17
2022-10-23T22:31:51.028Z,89.03
2022-10-23T22:34:34.832Z,89.01
2022-10-23T22:37:10.453Z,88.17
2022-10-23T22:39:39.737Z,88.54
2022-10-23T22:42:08.179Z,88.72
2022-10-23T22:44:37.527Z,88.78
2022-10-23T22:47:06.294Z,88.38
2022-10-23T22:49:34.279Z,88.33
2022-10-23T22:52:02.302Z,88.30
2022-10-23T22:54:31.426Z,88.49
2022-10-23T22:56:59.564Z,89.34
2022-10-23T22:59:27.722Z,89.17
2022-10-23T23:01:57.176Z,88.31
2022-10-23T23:04:37.321Z,89.57
2022-10-23T23:07:06.751Z,88.86
2022-10-23T23:09:37.623Z,88.79
2022-10-23T23:12:06.201Z,88.93
2022-10-23T23:14:34.287Z,89.13
2022-10-23T23:17:03.616Z,89.29
2022-10-23T23:19:31.683Z,89.17
2022-10-23T23:22:00.197Z,89.04
2022-10-23T23:24:28.458Z,89.38
2022-10-23T23:26:56.413Z,88.70
2022-10-23T23:29:24.356Z,89.18
2022-10-23T23:31:52.339Z,89.36
2022-10-23T23:34:22.114Z,89.45
2022-10-23T23:36:50.081Z,88.91
2022-10-23T23:39:18.557Z,88.93
2022-10-23T23:41:46.522Z,88.28
2022-10-23T23:44:14.602Z,88.50
2022-10-23T23:46:42.680Z,88.59
2022-10-23T23:49:10.664Z,88.60
2022-10-23T23:51:40.034Z,88.86
2022-10-23T23:54:08.065Z,89.16
2022-10-23T23:56:36.298Z,89.26
2022-10-23T23:59:04.560Z,90.14
